Terminal Aerodrome Forecast
Issued by NWS

Current Version | Previous Version | Text Only | Print | Product List | Glossary Off
Versions: 1 2 3 4 5 6 7 8 9 10 11 12 13 14 15 16 17 18 19

000
FTUS41 KRLX 280801 AAA
TAFCKB
TAF AMD
KCKB 280801Z 2808/2906 00000KT 1 1/2SM BR SKC
     FM281000 00000KT 1/4SM FG VV001
     FM281200 00000KT 2SM BR SCT250
     FM281300 00000KT P6SM SCT050=

USA.gov is the U.S. government's official web portal to all federal, state and local government web resources and services.